Time;durP1;ratioP1;P1;durP2;ratioP2;P2;SDS_P1;SDS_P2;PMS_P1;PMS_P2;Temp;Humidity;BMP_temperature;BMP_pressure;BME280_temperature;BME280_humidity;BME280_pressure;Samples;Min_cycle;Max_cycle;Signal;HPM_P1;HPM_P2
2022/11/21 00:01:20;;;;;;;86.08;39.40;;;;;;;-3.23;80.99;99560.03;1809450;77;25772;-58
2022/11/21 00:03:48;;;;;;;88.05;39.60;;;;;;;-3.23;81.03;99549.98;1835560;77;25513;-59
2022/11/21 00:06:15;;;;;;;89.97;40.03;;;;;;;-3.23;81.10;99560.03;1777889;79;25749;-60
2022/11/21 00:08:44;;;;;;;92.27;40.75;;;;;;;-3.22;81.22;99564.30;1785813;79;25382;-59
2022/11/21 00:11:12;;;;;;;92.50;40.73;;;;;;;-3.21;81.25;99563.23;1791547;78;28038;-59
2022/11/21 00:13:39;;;;;;;89.47;41.60;;;;;;;-3.21;81.55;99563.23;1797344;78;25525;-59
2022/11/21 00:16:10;;;;;;;96.67;42.95;;;;;;;-3.23;81.33;99557.92;1767429;80;26137;-60
2022/11/21 00:18:37;;;;;;;86.42;41.42;;;;;;;-3.22;81.28;99560.33;1758025;80;25719;-59
2022/11/21 00:21:07;;;;;;;98.45;42.00;;;;;;;-3.22;81.33;99559.01;1817244;78;25932;-59
2022/11/21 00:23:35;;;;;;;95.92;43.63;;;;;;;-3.22;81.40;99558.18;1829730;77;27218;-60
2022/11/21 00:26:08;;;;;;;91.35;42.88;;;;;;;-3.22;81.17;99554.22;1830136;77;25388;-59
2022/11/21 00:28:35;;;;;;;98.00;42.90;;;;;;;-3.24;81.17;99557.09;1826259;77;25818;-60
2022/11/21 00:31:01;;;;;;;96.37;44.50;;;;;;;-3.24;81.17;99561.06;1826010;77;25435;-58
2022/11/21 00:33:29;;;;;;;94.55;43.30;;;;;;;-3.25;81.00;99559.97;1817669;77;25610;-60
2022/11/21 00:35:55;;;;;;;96.45;42.65;;;;;;;-3.26;81.23;99561.82;1817692;77;26693;-59
2022/11/21 00:38:23;;;;;;;94.17;40.40;;;;;;;-3.28;81.27;99565.23;1799741;79;27508;-61
2022/11/21 00:40:49;;;;;;;99.92;45.88;;;;;;;-3.30;81.28;99560.70;1786844;79;25346;-60
2022/11/21 00:43:15;;;;;;;97.88;43.30;;;;;;;-3.31;81.38;99567.02;1796197;79;25681;-60
2022/11/21 00:45:42;;;;;;;100.67;45.20;;;;;;;-3.31;81.46;99567.02;1806010;79;25806;-61
2022/11/21 00:48:08;;;;;;;96.53;43.35;;;;;;;-3.31;81.49;99560.41;1796655;78;27348;-59
2022/11/21 00:50:34;;;;;;;98.58;43.00;;;;;;;-3.31;81.40;99558.28;1791363;79;25618;-60
2022/11/21 00:53:00;;;;;;;91.23;41.70;;;;;;;-3.31;81.46;99561.72;1784258;79;25560;-60
2022/11/21 00:55:26;;;;;;;97.60;42.85;;;;;;;-3.32;81.60;99550.87;1779813;79;25802;-61
2022/11/21 00:57:52;;;;;;;96.92;44.18;;;;;;;-3.31;81.61;99535.27;1771219;79;25397;-59
2022/11/21 01:00:19;;;;;;;101.27;43.55;;;;;;;-3.30;81.66;99534.75;1747204;80;27369;-59
2022/11/21 01:02:45;;;;;;;98.12;44.40;;;;;;;-3.31;81.66;99529.19;1811076;78;25791;-59
2022/11/21 01:05:11;;;;;;;100.65;42.85;;;;;;;-3.29;81.82;99533.72;1802942;78;25826;-60
2022/11/21 01:07:37;;;;;;;95.10;43.75;;;;;;;-3.29;81.51;99527.11;1802999;78;25678;-59
2022/11/21 01:10:05;;;;;;;99.60;43.80;;;;;;;-3.30;81.31;99521.52;1820791;77;25548;-58
2022/11/21 01:12:31;;;;;;;98.87;43.65;;;;;;;-3.29;81.38;99521.81;1843204;77;27863;-58
2022/11/21 01:14:58;;;;;;;103.10;44.13;;;;;;;-3.31;81.33;99516.77;1806142;78;25859;-59
2022/11/21 01:17:24;;;;;;;100.15;43.35;;;;;;;-3.30;81.29;99515.73;1805228;78;25569;-59
2022/11/21 01:19:50;;;;;;;106.10;44.55;;;;;;;-3.32;81.15;99515.67;1799989;78;25577;-60
2022/11/21 01:22:16;;;;;;;94.33;44.80;;;;;;;-3.34;81.21;99517.23;1766688;80;31958;-59
2022/11/21 01:24:44;;;;;;;96.55;42.50;;;;;;;-3.36;81.13;99515.34;1773561;79;27342;-59
2022/11/21 01:27:10;;;;;;;98.50;42.75;;;;;;;-3.37;80.96;99516.41;1787732;79;25584;-60
2022/11/21 01:29:36;;;;;;;95.65;42.95;;;;;;;-3.41;80.76;99513.40;1788075;79;25427;-60
2022/11/21 01:32:04;;;;;;;94.67;41.23;;;;;;;-3.42;80.93;99509.16;1805353;79;34808;-60
2022/11/21 01:34:30;;;;;;;100.97;44.25;;;;;;;-3.44;80.77;99514.39;1806703;78;25381;-60
2022/11/21 01:36:56;;;;;;;99.52;43.52;;;;;;;-3.48;81.12;99511.95;1787859;79;27411;-60
2022/11/21 01:39:25;;;;;;;99.52;44.33;;;;;;;-3.51;81.15;99517.70;1814975;77;25734;-59
2022/11/21 01:41:51;;;;;;;102.95;44.42;;;;;;;-3.55;80.99;99514.72;1785968;77;25763;-60
2022/11/21 01:44:28;;;;;;;96.28;45.20;;;;;;;-3.57;81.23;99507.55;1831692;77;25923;-60
2022/11/21 01:46:55;;;;;;;95.97;44.40;;;;;;;-3.57;81.49;99513.64;1804845;77;25411;-60
2022/11/21 01:49:30;;;;;;;100.90;44.08;;;;;;;-3.60;81.53;99507.48;1830565;77;27294;-59
2022/11/21 01:52:20;;;;;;;95.72;44.48;;;;;;;-3.60;81.62;99510.66;1824061;77;25796;-59
2022/11/21 01:54:58;;;;;;;99.25;44.25;;;;;;;-3.63;81.44;99500.55;1813612;77;25654;-59
2022/11/21 01:57:41;;;;;;;102.65;45.40;;;;;;;-3.63;81.29;99501.34;1784579;79;25815;-58
2022/11/21 02:00:23;;;;;;;101.80;45.28;;;;;;;-3.65;81.36;99495.49;1833858;77;25470;-59
2022/11/21 02:02:59;;;;;;;101.40;44.58;;;;;;;-3.67;81.17;99492.81;1781215;79;27473;-59
2022/11/21 02:05:31;;;;;;;99.30;45.48;;;;;;;-3.69;81.29;99497.55;1829224;77;25514;-59
2022/11/21 02:08:03;;;;;;;102.92;43.10;;;;;;;-3.72;81.20;99502.77;1805825;78;25842;-59
2022/11/21 02:10:29;;;;;;;94.10;43.75;;;;;;;-3.74;81.15;99502.20;1791426;79;25493;-57
2022/11/21 02:12:58;;;;;;;97.65;43.75;;;;;;;-3.77;80.96;99501.34;1814952;77;25446;-59
2022/11/21 02:15:28;;;;;;;100.05;43.87;;;;;;;-3.82;80.61;99498.06;1796634;77;28151;-59
2022/11/21 02:17:55;;;;;;;104.07;45.00;;;;;;;-3.85;80.36;99497.73;1817621;77;25598;-59
2022/11/21 02:20:25;;;;;;;95.12;42.10;;;;;;;-3.90;80.60;99491.81;1814942;77;25375;-59
2022/11/21 02:23:24;;;;;;;100.62;43.25;;;;;;;-3.92;80.80;99493.89;1841089;77;25577;-59
2022/11/21 02:25:53;;;;;;;101.87;45.15;;;;;;;-3.95;81.00;99487.25;1813953;77;25600;-59
2022/11/21 02:28:25;;;;;;;91.08;42.35;;;;;;;-3.99;80.74;99483.98;1819162;77;27387;-59
2022/11/21 02:30:51;;;;;;;98.60;43.65;;;;;;;-4.04;80.51;99479.38;1828501;77;25465;-60
2022/11/21 02:33:18;;;;;;;99.67;43.00;;;;;;;-4.08;80.13;99484.06;1788296;79;25414;-59
2022/11/21 02:35:44;;;;;;;96.53;43.23;;;;;;;-4.15;80.02;99494.22;1762582;80;25818;-60
2022/11/21 02:38:27;;;;;;;95.67;42.43;;;;;;;-4.23;79.73;99495.89;1754202;80;25394;-60
2022/11/21 02:41:14;;;;;;;92.65;41.48;;;;;;;-4.28;79.67;99496.31;1825633;77;28043;-60
2022/11/21 02:43:50;;;;;;;101.18;43.33;;;;;;;-4.34;79.53;99498.05;1818112;77;27177;-59
2022/11/21 02:46:17;;;;;;;92.45;41.15;;;;;;;-4.42;79.32;99498.37;1832313;77;26644;-59
2022/11/21 02:48:46;;;;;;;93.75;43.42;;;;;;;-4.50;79.48;99498.98;1814671;77;25653;-58
2022/11/21 02:51:15;;;;;;;103.62;44.23;;;;;;;-4.61;79.01;99498.48;1824199;77;25367;-59
2022/11/21 02:53:41;;;;;;;97.03;42.27;;;;;;;-4.61;79.01;99498.48;1826823;77;27496;-60
2022/11/21 02:56:08;;;;;;;93.15;39.92;;;;;;;-4.66;79.05;99501.00;1759186;80;25652;-59
2022/11/21 02:58:34;;;;;;;92.65;41.77;;;;;;;-4.73;78.97;99504.27;1748581;80;25483;-60
2022/11/21 03:01:00;;;;;;;91.57;39.75;;;;;;;-4.76;79.10;99502.08;1752147;80;25382;-60
2022/11/21 03:03:26;;;;;;;99.45;45.33;;;;;;;-4.81;79.25;99506.71;1826527;77;25786;-60
2022/11/21 03:05:55;;;;;;;97.40;43.02;;;;;;;-4.84;79.30;99511.12;1799331;78;27307;-59
2022/11/21 03:08:21;;;;;;;71.40;31.70;;;;;;;-4.87;79.48;99507.61;1827803;77;27177;-60
2022/11/21 03:10:47;;;;;;;94.72;41.60;;;;;;;-4.89;79.24;99514.95;1835399;77;25621;-60
2022/11/21 03:13:14;;;;;;;98.03;44.48;;;;;;;-4.93;79.29;99515.92;1817533;77;27540;-61
2022/11/21 03:15:41;;;;;;;106.17;46.13;;;;;;;-4.96;79.51;99520.32;1821051;77;25362;-60
2022/11/21 03:18:07;;;;;;;101.30;44.25;;;;;;;-4.99;79.87;99520.77;1836944;77;27332;-59
2022/11/21 03:20:34;;;;;;;97.17;42.98;;;;;;;-5.02;80.27;99529.64;1787870;79;25782;-60
2022/11/21 03:23:01;;;;;;;99.20;43.68;;;;;;;-5.06;80.42;99537.20;1787457;78;25664;-60
2022/11/21 03:25:28;;;;;;;97.00;42.38;;;;;;;-5.07;80.27;99542.21;1775885;79;25779;-59
2022/11/21 03:27:54;;;;;;;110.57;46.77;;;;;;;-5.10;80.39;99537.38;1789510;79;25525;-60
2022/11/21 03:30:25;;;;;;;99.65;45.03;;;;;;;-5.11;80.75;99535.27;1787179;80;27353;-59
2022/11/21 03:32:57;;;;;;;94.75;43.00;;;;;;;-5.13;80.86;99531.23;1774078;78;25690;-59
2022/11/21 03:35:25;;;;;;;97.42;45.00;;;;;;;-5.15;80.51;99527.49;1818577;77;25752;-61
2022/11/21 03:37:53;;;;;;;103.95;45.92;;;;;;;-5.16;80.98;99529.03;1775406;79;27541;-60
2022/11/21 03:40:20;;;;;;;108.97;47.20;;;;;;;-5.13;81.13;99531.23;1821697;77;25409;-60
2022/11/21 03:42:48;;;;;;;108.50;44.85;;;;;;;-5.11;81.39;99533.12;1817171;77;25907;-60
2022/11/21 03:45:14;;;;;;;104.03;45.23;;;;;;;-5.13;80.86;99534.66;1808421;77;25484;-61
2022/11/21 03:47:42;;;;;;;101.90;43.20;;;;;;;-5.14;81.02;99543.62;1830112;77;25599;-60
2022/11/21 03:50:09;;;;;;;77.20;36.53;;;;;;;-5.16;80.60;99540.90;1808472;77;25432;-60
2022/11/21 03:52:36;;;;;;;100.12;45.12;;;;;;;-5.19;80.49;99541.34;1825736;77;25829;-60
2022/11/21 03:55:04;;;;;;;114.15;46.50;;;;;;;-5.23;80.66;99535.71;1828424;77;27308;-61
2022/11/21 03:57:32;;;;;;;106.00;45.70;;;;;;;-5.25;81.07;99535.94;1823834;77;25431;-60
2022/11/21 04:00:00;;;;;;;105.78;46.92;;;;;;;-5.23;81.37;99530.97;1821104;77;25813;-59
2022/11/21 04:02:26;;;;;;;105.87;44.93;;;;;;;-5.22;81.61;99535.22;1823952;77;26076;-60
2022/11/21 04:04:53;;;;;;;114.37;47.27;;;;;;;-5.22;81.57;99532.06;1824054;77;25393;-61
2022/11/21 04:07:19;;;;;;;107.45;45.88;;;;;;;-5.21;81.37;99537.64;1824083;77;27325;-60
2022/11/21 04:09:45;;;;;;;110.95;46.80;;;;;;;-5.22;81.00;99535.22;1826347;77;25768;-60
2022/11/21 04:12:14;;;;;;;104.53;46.37;;;;;;;-5.25;80.71;99536.45;1804197;79;25719;-60
2022/11/21 04:14:41;;;;;;;98.05;44.95;;;;;;;-5.29;80.41;99532.15;1786785;79;25422;-61
2022/11/21 04:17:07;;;;;;;101.67;43.63;;;;;;;-5.29;80.45;99535.30;1769508;79;25909;-61
2022/11/21 04:19:33;;;;;;;103.60;45.67;;;;;;;-5.35;80.19;99526.44;1793629;79;27340;-61
2022/11/21 04:21:59;;;;;;;98.85;42.85;;;;;;;-5.40;79.97;99522.34;1781963;79;25394;-61
2022/11/21 04:24:26;;;;;;;100.45;41.70;;;;;;;-5.46;79.81;99527.20;1804900;79;25425;-60
2022/11/21 04:26:55;;;;;;;105.05;43.65;;;;;;;-5.46;79.52;99527.20;1785166;78;25877;-59
2022/11/21 04:29:21;;;;;;;;;;;;;;;-5.52;79.23;99521.50;1807115;78;25463;-58
2022/11/21 04:31:47;;;;;;;90.22;41.77;;;;;;;-5.57;79.09;99529.27;1805521;79;27466;-58
2022/11/21 04:34:16;;;;;;;92.75;41.20;;;;;;;-5.63;78.96;99527.80;1806368;78;25791;-60
2022/11/21 04:36:42;;;;;;;104.80;44.45;;;;;;;-5.67;78.89;99528.45;1781951;79;25473;-58
2022/11/21 04:39:08;;;;;;;103.85;45.48;;;;;;;-5.72;79.12;99526.51;1770409;78;25473;-60
2022/11/21 04:41:35;;;;;;;97.05;42.93;;;;;;;-5.74;79.33;99518.52;1837401;77;25551;-58
2022/11/21 04:44:03;;;;;;;96.10;42.43;;;;;;;-5.80;79.15;99517.58;1836198;77;27305;-58
2022/11/21 04:46:30;;;;;;;106.07;43.20;;;;;;;-5.80;79.51;99515.47;1793131;79;25718;-58
2022/11/21 04:48:57;;;;;;;102.65;42.40;;;;;;;-5.82;79.50;99520.43;1805202;79;25491;-58
2022/11/21 04:51:24;;;;;;;108.10;44.58;;;;;;;-5.85;79.44;99514.80;1790226;79;25773;-60
2022/11/21 04:53:50;;;;;;;104.10;44.18;;;;;;;-5.86;79.82;99522.39;1795564;79;25396;-60
2022/11/21 04:56:16;;;;;;;106.05;46.53;;;;;;;-5.87;80.02;99516.33;1788130;78;27994;-60
2022/11/21 04:58:43;;;;;;;108.15;45.28;;;;;;;-5.88;80.01;99506.02;1794267;78;25598;-59
2022/11/21 05:01:10;;;;;;;111.37;46.85;;;;;;;-5.88;80.04;99504.70;1800194;79;25799;-58
2022/11/21 05:03:37;;;;;;;103.50;44.80;;;;;;;-5.89;80.03;99504.39;1799158;79;25898;-58
2022/11/21 05:06:03;;;;;;;99.60;43.78;;;;;;;-5.90;79.85;99512.02;1793540;79;25589;-59
2022/11/21 05:08:29;;;;;;;98.12;42.65;;;;;;;-5.93;79.55;99504.55;1804746;79;27289;-60
2022/11/21 05:13:40;;;;;;;105.83;44.98;;;;;;;-5.95;79.57;99509.24;1770436;80;25802;-58
2022/11/21 05:16:06;;;;;;;111.40;44.50;;;;;;;-5.97;80.00;99513.44;1779781;79;31938;-60
2022/11/21 05:18:34;;;;;;;113.62;46.63;;;;;;;-5.98;80.37;99504.44;1776153;78;25609;-60
2022/11/21 05:21:03;;;;;;;106.85;45.35;;;;;;;-5.98;80.32;99512.34;1806527;78;27353;-60
2022/11/21 05:23:29;;;;;;;104.97;46.02;;;;;;;-5.99;80.35;99513.34;1800443;78;25758;-59
2022/11/21 05:25:55;;;;;;;118.22;46.48;;;;;;;-6.01;80.38;99506.98;1765623;80;25454;-59
2022/11/21 05:28:22;;;;;;;112.55;48.40;;;;;;;-6.01;80.73;99504.34;1770578;80;25592;-59
2022/11/21 05:30:48;;;;;;;111.37;46.30;;;;;;;-5.99;80.87;99501.50;1781004;79;25800;-59
2022/11/21 05:33:17;;;;;;;110.83;47.33;;;;;;;-5.99;80.74;99497.06;1783658;79;27305;-59
2022/11/21 05:35:44;;;;;;;121.13;50.03;;;;;;;-5.99;80.79;99499.69;1778152;79;25697;-58
2022/11/21 05:38:10;;;;;;;112.52;46.25;;;;;;;-5.97;80.33;99506.06;1784010;79;25443;-60
2022/11/21 05:40:36;;;;;;;111.00;47.75;;;;;;;-5.98;80.10;99504.44;1779824;79;25799;-59
2022/11/21 05:45:49;;;;;;;118.08;48.38;;;;;;;-6.02;79.88;99507.50;1772904;80;28329;-59
2022/11/21 05:48:17;;;;;;;109.92;47.30;;;;;;;-6.04;79.78;99503.50;1825435;77;25531;-59
2022/11/21 05:50:49;;;;;;;108.35;47.10;;;;;;;-6.05;80.35;99500.56;1779063;78;25762;-60
2022/11/21 05:53:16;;;;;;;106.67;44.60;;;;;;;-6.06;80.56;99514.25;1788243;78;25994;-60
2022/11/21 05:55:44;;;;;;;109.95;45.67;;;;;;;-6.05;80.57;99508.45;1776221;78;25592;-60
2022/11/21 05:58:12;;;;;;;111.37;45.67;;;;;;;-6.05;80.40;99515.83;1800716;78;27316;-60
2022/11/21 06:00:40;;;;;;;113.45;47.33;;;;;;;-6.05;80.35;99513.72;1786018;79;25597;-60
2022/11/21 06:03:27;;;;;;;109.83;46.92;;;;;;;-6.08;80.30;99515.47;1822174;77;25413;-60
2022/11/21 06:06:10;;;;;;;113.85;46.50;;;;;;;-6.05;80.49;99520.30;1817608;77;25722;-60
2022/11/21 06:08:45;;;;;;;111.10;46.05;;;;;;;-6.06;80.58;99520.00;1830832;77;25423;-60
2022/11/21 06:11:16;;;;;;;118.93;49.88;;;;;;;-6.07;80.25;99528.42;1790798;78;29543;-61
2022/11/21 06:13:45;;;;;;;107.47;46.28;;;;;;;-6.06;80.40;99523.95;1779173;80;25767;-60
2022/11/21 06:16:15;;;;;;;110.17;47.35;;;;;;;-6.06;80.18;99520.00;1778618;79;25689;-60
2022/11/21 06:18:46;;;;;;;113.62;46.83;;;;;;;-6.07;80.23;99518.41;1779989;79;25478;-61
2022/11/21 06:21:22;;;;;;;119.87;49.67;;;;;;;-6.05;80.47;99512.41;1779921;79;25769;-60
2022/11/21 06:23:55;;;;;;;121.40;47.43;;;;;;;-6.05;80.67;99511.89;1775234;80;27266;-60
2022/11/21 06:26:26;;;;;;;116.25;49.33;;;;;;;-6.03;80.72;99509.03;1784046;79;25724;-59
2022/11/21 06:28:53;;;;;;;121.72;49.58;;;;;;;-6.00;80.82;99513.87;1826465;77;25374;-60
2022/11/21 06:31:24;;;;;;;118.13;49.15;;;;;;;-5.97;81.02;99513.95;1814778;77;25988;-60
2022/11/21 06:33:56;;;;;;;109.85;46.75;;;;;;;-5.97;81.29;99498.16;1819365;77;25523;-59
2022/11/21 06:36:25;;;;;;;116.65;49.27;;;;;;;-5.90;81.39;99494.91;1817543;77;27384;-59
2022/11/21 06:38:55;;;;;;;119.70;49.80;;;;;;;-5.86;81.45;99497.37;1819912;77;25361;-60
2022/11/21 06:41:24;;;;;;;109.03;46.63;;;;;;;-5.83;81.56;99497.73;1810502;77;25651;-59
2022/11/21 06:43:52;;;;;;;103.53;45.83;;;;;;;-5.77;81.64;99506.61;1772906;79;25916;-60
2022/11/21 06:46:18;;;;;;;112.77;48.85;;;;;;;-5.73;81.72;99507.77;1790232;79;25629;-60
2022/11/21 06:48:45;;;;;;;114.25;48.33;;;;;;;-5.67;81.56;99504.25;1787302;79;27352;-60
2022/11/21 06:51:23;;;;;;;110.80;49.13;;;;;;;-5.64;81.59;99507.73;1770548;80;27327;-61
2022/11/21 06:53:57;;;;;;;113.50;49.18;;;;;;;-5.58;81.69;99508.70;1782755;79;25370;-60
2022/11/21 06:56:28;;;;;;;114.72;48.78;;;;;;;-5.51;81.81;99512.05;1796111;79;25491;-60
2022/11/21 06:58:56;;;;;;;121.42;50.60;;;;;;;-5.47;81.89;99521.63;1789756;79;25425;-60
2022/11/21 07:01:24;;;;;;;112.35;49.65;;;;;;;-5.38;81.94;99515.53;1780515;79;27374;-60
2022/11/21 07:03:52;;;;;;;112.05;47.85;;;;;;;-5.33;82.13;99514.35;1786686;79;25707;-60
2022/11/21 07:06:19;;;;;;;155.78;67.85;;;;;;;-5.30;82.28;99518.66;1787655;78;25391;-59
2022/11/21 07:08:45;;;;;;;130.05;52.90;;;;;;;-5.19;82.62;99513.66;1797265;79;25789;-59
2022/11/21 07:11:13;;;;;;;125.02;51.77;;;;;;;-5.10;82.71;99520.23;1794933;79;25531;-60
2022/11/21 07:13:43;;;;;;;115.22;49.55;;;;;;;-5.02;82.77;99513.82;1804588;79;27268;-60
2022/11/21 07:16:14;;;;;;;122.45;53.10;;;;;;;-4.92;82.83;99521.50;1788694;79;25389;-60
2022/11/21 07:18:44;;;;;;;123.53;51.68;;;;;;;-4.82;83.10;99510.89;1792886;78;25492;-59
2022/11/21 07:21:10;;;;;;;;;;;;;;;-4.70;83.29;99516.98;1801193;79;25605;-59
2022/11/21 07:23:37;;;;;;;111.40;48.33;;;;;;;-4.56;83.63;99522.88;1804708;79;25828;-60
2022/11/21 07:26:07;;;;;;;128.30;54.53;;;;;;;-4.46;83.37;99519.16;1770850;80;28045;-60
2022/11/21 07:28:35;;;;;;;128.18;57.03;;;;;;;-4.37;83.24;99519.62;1791067;78;25561;-60
2022/11/21 07:31:03;;;;;;;130.97;55.35;;;;;;;-4.27;82.98;99525.12;1798389;79;25409;-60
2022/11/21 07:33:29;;;;;;;130.87;56.90;;;;;;;-4.16;83.33;99512.41;1776663;79;25534;-59
2022/11/21 07:35:57;;;;;;;132.82;56.70;;;;;;;-3.95;83.93;99508.39;1769679;79;25393;-58
2022/11/21 07:38:26;;;;;;;136.85;57.98;;;;;;;-3.75;83.85;99507.19;1775783;79;27898;-59
2022/11/21 07:40:56;;;;;;;140.28;61.42;;;;;;;-3.53;84.70;99498.10;1800214;78;25381;-60
2022/11/21 07:43:23;;;;;;;140.15;60.38;;;;;;;-3.22;84.96;99505.28;1769090;80;25804;-59
2022/11/21 07:45:49;;;;;;;141.62;61.02;;;;;;;-2.94;85.54;99500.48;1758768;80;25836;-59
2022/11/21 07:48:15;;;;;;;137.10;59.15;;;;;;;-2.53;86.46;99496.37;1758586;80;25391;-60
2022/11/21 07:50:41;;;;;;;137.75;61.25;;;;;;;-2.11;86.72;99494.06;1755380;80;27310;-59
2022/11/21 07:53:10;;;;;;;138.43;60.48;;;;;;;-1.70;87.09;99485.82;1747273;81;25531;-60
2022/11/21 07:55:38;;;;;;;135.22;60.15;;;;;;;-1.36;85.28;99494.42;1832673;77;25753;-60
2022/11/21 07:58:10;;;;;;;144.35;66.30;;;;;;;-1.11;84.26;99495.70;1808235;77;25388;-59
2022/11/21 08:00:41;;;;;;;128.85;58.80;;;;;;;-0.79;84.58;99494.41;1818744;77;25761;-58
2022/11/21 08:03:15;;;;;;;123.25;54.90;;;;;;;-0.51;82.78;99489.84;1835005;77;27318;-59
2022/11/21 08:05:42;;;;;;;136.60;58.30;;;;;;;-0.20;82.09;99488.72;1821394;77;25854;-59
2022/11/21 08:08:12;;;;;;;127.90;55.33;;;;;;;0.02;81.54;99493.06;1803842;79;25647;-59
2022/11/21 08:10:44;;;;;;;121.53;54.08;;;;;;;0.29;81.45;99488.42;1833601;77;25369;-60
2022/11/21 08:13:13;;;;;;;120.62;56.68;;;;;;;0.69;82.18;99486.92;1804207;77;25407;-59
2022/11/21 08:15:40;;;;;;;114.25;53.08;;;;;;;1.20;82.28;99486.73;1840821;77;27325;-59
2022/11/21 08:18:17;;;;;;;108.80;53.02;;;;;;;1.56;80.39;99474.72;1833176;77;25749;-58
2022/11/21 08:20:44;;;;;;;121.90;52.90;;;;;;;1.96;80.23;99483.69;1793250;79;25483;-59
2022/11/21 08:23:11;;;;;;;113.30;52.80;;;;;;;2.36;78.48;99493.96;1829742;77;27543;-59
2022/11/21 08:25:39;;;;;;;103.02;51.40;;;;;;;2.50;76.09;99495.49;1819353;77;25731;-59
2022/11/21 08:28:09;;;;;;;107.27;49.63;;;;;;;2.63;75.25;99502.12;1826862;77;26918;-59
2022/11/21 08:30:39;;;;;;;96.67;47.08;;;;;;;2.80;75.58;99499.88;1823960;77;25777;-59
2022/11/21 08:33:06;;;;;;;121.35;59.70;;;;;;;3.18;76.34;99494.28;1814754;77;25416;-59
2022/11/21 08:35:41;;;;;;;99.22;47.65;;;;;;;3.60;76.31;99501.41;1814416;77;25362;-59
2022/11/21 08:38:09;;;;;;;89.25;47.43;;;;;;;4.03;74.42;99498.05;1808366;77;25708;-59
2022/11/21 08:40:36;;;;;;;95.42;48.42;;;;;;;4.32;73.51;99503.33;1811971;77;27370;-58
2022/11/21 08:43:08;;;;;;;91.28;43.48;;;;;;;4.26;70.13;99501.81;1804480;79;26092;-60
2022/11/21 08:45:38;;;;;;;88.78;44.88;;;;;;;4.17;69.84;99499.48;1773297;80;25619;-60
2022/11/21 08:48:12;;;;;;;80.55;43.70;;;;;;;4.24;69.51;99510.64;1791192;79;26059;-60
2022/11/21 08:50:39;;;;;;;92.90;46.37;;;;;;;4.26;68.45;99505.27;1795863;79;25664;-59
2022/11/21 08:53:05;;;;;;;85.57;44.48;;;;;;;4.51;70.43;99503.35;1802003;78;27322;-60
2022/11/21 08:55:33;;;;;;;78.28;42.80;;;;;;;5.08;71.76;99503.94;1780615;78;25874;-60
2022/11/21 08:58:01;;;;;;;79.67;44.20;;;;;;;5.75;71.24;99508.44;1810661;78;25466;-60
2022/11/21 09:00:27;;;;;;;88.42;43.50;;;;;;;6.34;70.92;99495.83;1795026;78;25551;-60
2022/11/21 09:02:54;;;;;;;80.03;42.40;;;;;;;6.99;69.89;99489.87;1781230;79;25602;-60
2022/11/21 09:05:22;;;;;;;78.10;41.65;;;;;;;7.44;68.36;99479.91;1826371;77;28125;-60
2022/11/21 09:07:56;;;;;;;77.42;42.27;;;;;;;7.94;67.16;99476.19;1808424;77;25659;-61
2022/11/21 09:10:25;;;;;;;80.77;43.87;;;;;;;8.40;66.05;99475.45;1830606;77;25766;-62
2022/11/21 09:12:52;;;;;;;75.90;41.70;;;;;;;8.95;65.53;99480.84;1842565;77;25525;-61
2022/11/21 09:18:06;;;;;;;74.07;41.98;;;;;;;9.52;62.32;99481.97;1813672;77;27312;-61
2022/11/21 09:20:41;;;;;;;84.97;45.50;;;;;;;9.86;61.04;99482.20;1791535;79;25827;-61
2022/11/21 09:23:13;;;;;;;73.40;42.70;;;;;;;10.04;59.92;99478.85;1804833;78;25590;-62
2022/11/21 09:25:41;;;;;;;94.07;51.75;;;;;;;10.39;59.67;99469.26;1796112;78;25509;-62
2022/11/21 09:28:11;;;;;;;145.32;78.02;;;;;;;10.68;58.79;99473.05;1784706;79;25366;-63
2022/11/21 09:30:41;;;;;;;79.27;44.40;;;;;;;10.87;57.89;99471.23;1778638;79;27423;-62
2022/11/21 09:33:10;;;;;;;;;;;;;;;11.13;56.92;99466.94;1793916;79;25618;-62
2022/11/21 09:35:38;;;;;;;;;;;;;;;11.39;56.00;99460.72;1793659;79;25421;-62
2022/11/21 09:38:05;;;;;;;72.67;41.08;;;;;;;11.90;55.66;99466.43;1803029;77;25882;-62
2022/11/21 09:40:35;;;;;;;66.75;39.40;;;;;;;12.18;54.17;99473.94;1818691;77;25943;-62
2022/11/21 09:43:29;;;;;;;63.02;36.85;;;;;;;12.07;52.42;99479.00;1803406;77;28096;-62
2022/11/21 09:46:02;;;;;;;61.77;35.38;;;;;;;11.92;52.08;99473.14;1710166;82;25831;-63
2022/11/21 09:48:47;;;;;;;60.12;36.90;;;;;;;11.69;49.72;99474.08;1720044;81;25646;-63
2022/11/21 09:51:17;;;;;;;66.55;36.35;;;;;;;11.27;49.66;99475.58;1741674;82;25623;-63
2022/11/21 09:53:59;;;;;;;58.58;35.88;;;;;;;10.76;49.23;99472.98;1714716;82;25846;-64
2022/11/21 09:56:30;;;;;;;58.28;35.55;;;;;;;10.20;48.97;99463.68;1737667;82;27395;-64
2022/11/21 09:59:21;;;;;;;64.70;37.35;;;;;;;9.61;48.93;99467.66;1735396;82;25545;-62
2022/11/21 10:01:48;;;;;;;66.85;36.90;;;;;;;9.00;49.70;99457.76;1725733;82;25798;-61
2022/11/21 10:04:14;;;;;;;58.78;35.33;;;;;;;8.37;50.23;99440.48;1728946;81;25879;-63
2022/11/21 10:07:05;;;;;;;66.02;37.30;;;;;;;8.47;52.23;99440.77;1723090;81;25776;-63
2022/11/21 10:10:16;;;;;;;63.25;36.53;;;;;;;8.90;53.33;99432.46;1725509;81;27193;-62
2022/11/21 10:13:06;;;;;;;63.70;35.83;;;;;;;9.30;51.68;99423.59;1728627;82;25691;-63
2022/11/21 10:15:51;;;;;;;62.05;35.30;;;;;;;9.15;50.69;99423.54;1732460;82;25803;-63
2022/11/21 10:18:54;;;;;;;60.65;35.20;;;;;;;9.68;52.44;99418.00;1724423;82;25893;-62
2022/11/21 10:21:36;;;;;;;62.40;34.85;;;;;;;10.50;52.92;99419.64;1727048;81;25697;-63
2022/11/21 10:24:24;;;;;;;86.12;46.58;;;;;;;11.32;51.06;99404.98;1814091;77;26036;-63
2022/11/21 10:26:59;;;;;;;63.15;36.75;;;;;;;11.63;50.58;99406.91;1826186;77;25522;-63
2022/11/21 10:29:34;;;;;;;64.00;37.42;;;;;;;11.96;49.67;99403.57;1816059;77;25558;-63
2022/11/21 10:32:24;;;;;;;56.80;34.33;;;;;;;11.92;47.63;99406.75;1817691;77;25815;-64
2022/11/21 10:35:00;;;;;;;57.10;34.00;;;;;;;11.65;47.60;99406.82;1814441;77;25405;-63
2022/11/21 10:37:39;;;;;;;59.48;35.45;;;;;;;11.61;47.45;99405.11;1835270;77;28103;-63
2022/11/21 10:40:36;;;;;;;59.33;34.97;;;;;;;11.66;47.52;99405.67;1784265;79;25529;-63
2022/11/21 10:46:31;;;;;;;57.05;35.00;;;;;;;12.26;47.21;99396.55;1648346;86;26204;-62
2022/11/21 10:49:02;;;;;;;55.90;33.25;;;;;;;12.31;45.47;99397.67;1636685;86;25510;-63
2022/11/21 10:51:55;;;;;;;58.10;33.70;;;;;;;12.15;45.68;99402.98;1615324;86;28076;-63
2022/11/21 10:54:33;;;;;;;55.70;33.88;;;;;;;12.22;45.86;99405.70;1628592;87;25767;-63
2022/11/21 10:57:13;;;;;;;55.73;34.50;;;;;;;12.11;45.34;99402.67;1632181;87;25783;-62
2022/11/21 10:59:41;;;;;;;60.70;35.08;;;;;;;11.84;44.78;99407.61;1623974;87;25623;-62
2022/11/21 11:02:19;;;;;;;59.98;35.30;;;;;;;11.96;46.03;99410.34;1642654;87;25863;-62
2022/11/21 11:04:45;;;;;;;63.50;36.00;;;;;;;12.21;45.97;99408.98;1628237;86;27532;-62
2022/11/21 11:07:28;;;;;;;57.13;34.35;;;;;;;12.43;45.59;99416.38;1632484;86;25841;-63
2022/11/21 11:10:23;;;;;;;56.85;33.02;;;;;;;12.41;45.31;99416.75;1630240;86;25901;-60
2022/11/21 11:15:42;;;;;;;55.65;32.63;;;;;;;11.90;44.36;99406.27;1625373;87;25700;-61
2022/11/21 11:18:13;;;;;;;58.08;32.63;;;;;;;11.70;44.94;99412.59;1628541;87;27346;-61
2022/11/21 11:20:44;;;;;;;58.92;32.50;;;;;;;11.50;45.21;99406.91;1719491;80;25685;-61
2022/11/21 11:23:25;;;;;;;58.42;31.93;;;;;;;11.62;46.00;99409.41;1817514;77;25934;-59
2022/11/21 11:25:56;;;;;;;57.50;30.92;;;;;;;11.59;45.12;99409.52;1818934;77;25675;-62
2022/11/21 11:28:29;;;;;;;59.60;31.27;;;;;;;11.50;44.92;99399.36;1778074;79;25586;-61
2022/11/21 11:30:56;;;;;;;64.10;31.60;;;;;;;11.33;45.01;99405.19;1808045;77;27366;-60
2022/11/21 11:33:40;;;;;;;61.13;32.53;;;;;;;11.26;45.86;99402.24;1794256;77;26036;-61
2022/11/21 11:36:30;;;;;;;58.87;32.65;;;;;;;11.17;44.90;99408.33;1825323;77;25780;-60
2022/11/21 11:39:21;;;;;;;57.65;31.95;;;;;;;10.99;44.52;99409.83;1816984;77;26016;-60
2022/11/21 11:48:07;;;;;;;60.92;31.62;;;;;;;10.33;45.03;99415.92;1818884;77;25786;-60
2022/11/21 11:50:54;;;;;;;57.60;31.55;;;;;;;9.96;45.41;99407.55;1819020;77;25894;-61
2022/11/21 11:53:38;;;;;;;60.08;33.15;;;;;;;9.58;45.77;99406.20;1780984;79;25532;-61